sensor_id;sensor_type;location;lat;lon;timestamp;temperature;humidity
23755;DHT22;12057;52.042;6.830;2023-05-07T00:03:14;15.20;99.90
23755;DHT22;12057;52.042;6.830;2023-05-07T00:08:15;15.10;99.90
23755;DHT22;12057;52.042;6.830;2023-05-07T00:13:16;15.20;99.90
23755;DHT22;12057;52.042;6.830;2023-05-07T00:18:17;15.20;99.90
23755;DHT22;12057;52.042;6.830;2023-05-07T00:23:21;15.10;99.90
23755;DHT22;12057;52.042;6.830;2023-05-07T00:28:22;15.20;99.90
23755;DHT22;12057;52.042;6.830;2023-05-07T00:33:23;15.10;99.90
23755;DHT22;12057;52.042;6.830;2023-05-07T00:38:24;15.10;99.90
23755;DHT22;12057;52.042;6.830;2023-05-07T00:43:24;15.10;99.90
23755;DHT22;12057;52.042;6.830;2023-05-07T00:48:26;15.10;99.90
23755;DHT22;12057;52.042;6.830;2023-05-07T00:53:26;15.10;99.90
23755;DHT22;12057;52.042;6.830;2023-05-07T00:58:27;15.10;99.90
23755;DHT22;12057;52.042;6.830;2023-05-07T01:03:28;15.10;99.90
23755;DHT22;12057;52.042;6.830;2023-05-07T01:08:30;15.00;99.90
23755;DHT22;12057;52.042;6.830;2023-05-07T01:13:32;14.90;99.90
23755;DHT22;12057;52.042;6.830;2023-05-07T01:18:34;14.90;99.90
23755;DHT22;12057;52.042;6.830;2023-05-07T01:23:35;14.90;99.90
23755;DHT22;12057;52.042;6.830;2023-05-07T01:28:36;14.80;99.90
23755;DHT22;12057;52.042;6.830;2023-05-07T01:33:38;14.70;99.90
23755;DHT22;12057;52.042;6.830;2023-05-07T01:38:41;14.60;99.90
23755;DHT22;12057;52.042;6.830;2023-05-07T01:43:43;14.60;99.90
23755;DHT22;12057;52.042;6.830;2023-05-07T01:48:45;14.70;99.90
23755;DHT22;12057;52.042;6.830;2023-05-07T01:53:46;14.70;99.90
23755;DHT22;12057;52.042;6.830;2023-05-07T01:58:51;14.70;99.90
23755;DHT22;12057;52.042;6.830;2023-05-07T02:03:52;14.70;99.90
23755;DHT22;12057;52.042;6.830;2023-05-07T02:08:54;14.70;99.90
23755;DHT22;12057;52.042;6.830;2023-05-07T02:13:54;14.60;99.90
23755;DHT22;12057;52.042;6.830;2023-05-07T02:18:55;14.60;99.90
23755;DHT22;12057;52.042;6.830;2023-05-07T02:23:57;14.70;99.90
23755;DHT22;12057;52.042;6.830;2023-05-07T02:28:57;14.70;99.90
23755;DHT22;12057;52.042;6.830;2023-05-07T02:33:58;14.70;99.90
23755;DHT22;12057;52.042;6.830;2023-05-07T02:38:59;14.60;99.90
23755;DHT22;12057;52.042;6.830;2023-05-07T02:44:00;14.60;99.90
23755;DHT22;12057;52.042;6.830;2023-05-07T02:49:00;14.50;99.90
23755;DHT22;12057;52.042;6.830;2023-05-07T02:54:01;14.50;99.90
23755;DHT22;12057;52.042;6.830;2023-05-07T02:59:02;14.50;99.90
23755;DHT22;12057;52.042;6.830;2023-05-07T03:04:03;14.40;99.90
23755;DHT22;12057;52.042;6.830;2023-05-07T03:09:03;14.50;99.90
23755;DHT22;12057;52.042;6.830;2023-05-07T03:14:04;14.40;99.90
23755;DHT22;12057;52.042;6.830;2023-05-07T03:19:05;14.30;99.90
23755;DHT22;12057;52.042;6.830;2023-05-07T03:24:06;14.20;99.90
23755;DHT22;12057;52.042;6.830;2023-05-07T03:29:07;14.20;99.90
23755;DHT22;12057;52.042;6.830;2023-05-07T03:34:07;14.20;99.90
23755;DHT22;12057;52.042;6.830;2023-05-07T03:39:08;14.10;99.90
23755;DHT22;12057;52.042;6.830;2023-05-07T03:44:09;14.00;99.90
23755;DHT22;12057;52.042;6.830;2023-05-07T03:49:10;13.90;99.90
23755;DHT22;12057;52.042;6.830;2023-05-07T03:54:10;13.80;99.90
23755;DHT22;12057;52.042;6.830;2023-05-07T03:59:12;13.90;99.90
23755;DHT22;12057;52.042;6.830;2023-05-07T04:04:13;13.80;99.90
23755;DHT22;12057;52.042;6.830;2023-05-07T04:09:14;13.80;99.90
23755;DHT22;12057;52.042;6.830;2023-05-07T04:14:15;13.80;99.90
23755;DHT22;12057;52.042;6.830;2023-05-07T04:19:16;13.70;99.90
23755;DHT22;12057;52.042;6.830;2023-05-07T04:24:16;13.60;99.90
23755;DHT22;12057;52.042;6.830;2023-05-07T04:29:17;13.70;99.90
23755;DHT22;12057;52.042;6.830;2023-05-07T04:34:18;13.60;99.90
23755;DHT22;12057;52.042;6.830;2023-05-07T04:39:19;13.70;99.90
23755;DHT22;12057;52.042;6.830;2023-05-07T04:44:19;13.60;99.90
23755;DHT22;12057;52.042;6.830;2023-05-07T04:49:20;13.60;99.90
23755;DHT22;12057;52.042;6.830;2023-05-07T04:54:21;13.60;99.90
23755;DHT22;12057;52.042;6.830;2023-05-07T04:59:22;13.60;99.90
23755;DHT22;12057;52.042;6.830;2023-05-07T05:04:22;13.70;99.90
23755;DHT22;12057;52.042;6.830;2023-05-07T05:09:23;13.70;99.90
23755;DHT22;12057;52.042;6.830;2023-05-07T05:14:24;13.70;99.90
23755;DHT22;12057;52.042;6.830;2023-05-07T05:19:25;13.70;99.90
23755;DHT22;12057;52.042;6.830;2023-05-07T05:24:25;13.70;99.90
23755;DHT22;12057;52.042;6.830;2023-05-07T05:29:26;13.60;99.90
23755;DHT22;12057;52.042;6.830;2023-05-07T05:34:27;13.70;99.90
23755;DHT22;12057;52.042;6.830;2023-05-07T05:39:28;13.60;99.90
23755;DHT22;12057;52.042;6.830;2023-05-07T05:44:28;13.50;99.90
23755;DHT22;12057;52.042;6.830;2023-05-07T05:49:29;13.60;99.90
23755;DHT22;12057;52.042;6.830;2023-05-07T05:54:30;13.70;99.90
23755;DHT22;12057;52.042;6.830;2023-05-07T05:59:31;13.70;99.90
23755;DHT22;12057;52.042;6.830;2023-05-07T06:04:31;13.90;99.90
23755;DHT22;12057;52.042;6.830;2023-05-07T06:09:32;13.90;99.90
23755;DHT22;12057;52.042;6.830;2023-05-07T06:14:33;14.00;99.90
23755;DHT22;12057;52.042;6.830;2023-05-07T06:19:34;14.00;99.90
23755;DHT22;12057;52.042;6.830;2023-05-07T06:24:35;14.00;99.90
23755;DHT22;12057;52.042;6.830;2023-05-07T06:29:36;14.10;99.90
23755;DHT22;12057;52.042;6.830;2023-05-07T06:34:37;14.30;99.90
23755;DHT22;12057;52.042;6.830;2023-05-07T06:39:38;14.40;99.90
23755;DHT22;12057;52.042;6.830;2023-05-07T06:44:39;14.50;99.90
23755;DHT22;12057;52.042;6.830;2023-05-07T06:49:40;14.70;99.90
23755;DHT22;12057;52.042;6.830;2023-05-07T06:54:40;14.90;99.90
23755;DHT22;12057;52.042;6.830;2023-05-07T06:59:41;14.80;99.90
23755;DHT22;12057;52.042;6.830;2023-05-07T07:04:42;14.80;99.90
23755;DHT22;12057;52.042;6.830;2023-05-07T07:09:43;14.80;99.90
23755;DHT22;12057;52.042;6.830;2023-05-07T07:14:43;15.00;99.90
23755;DHT22;12057;52.042;6.830;2023-05-07T07:19:44;15.00;99.90
23755;DHT22;12057;52.042;6.830;2023-05-07T07:24:45;15.20;99.90
23755;DHT22;12057;52.042;6.830;2023-05-07T07:29:46;15.20;99.90
23755;DHT22;12057;52.042;6.830;2023-05-07T07:34:46;15.20;99.90
23755;DHT22;12057;52.042;6.830;2023-05-07T07:39:47;15.30;99.90
23755;DHT22;12057;52.042;6.830;2023-05-07T07:44:48;15.40;99.90
23755;DHT22;12057;52.042;6.830;2023-05-07T07:49:49;15.40;99.90
23755;DHT22;12057;52.042;6.830;2023-05-07T07:54:49;15.40;99.90
23755;DHT22;12057;52.042;6.830;2023-05-07T07:59:50;15.40;99.90
23755;DHT22;12057;52.042;6.830;2023-05-07T08:04:51;15.60;99.90
23755;DHT22;12057;52.042;6.830;2023-05-07T08:09:52;15.70;99.90
23755;DHT22;12057;52.042;6.830;2023-05-07T08:14:53;15.90;99.90
23755;DHT22;12057;52.042;6.830;2023-05-07T08:19:54;16.00;99.90
23755;DHT22;12057;52.042;6.830;2023-05-07T08:24:54;16.10;99.90
23755;DHT22;12057;52.042;6.830;2023-05-07T08:29:55;16.40;99.90
23755;DHT22;12057;52.042;6.830;2023-05-07T08:34:56;16.50;99.90
23755;DHT22;12057;52.042;6.830;2023-05-07T08:39:57;16.80;99.90
23755;DHT22;12057;52.042;6.830;2023-05-07T08:44:59;17.10;99.90
23755;DHT22;12057;52.042;6.830;2023-05-07T08:50:02;17.40;99.90
23755;DHT22;12057;52.042;6.830;2023-05-07T08:55:03;17.70;99.90
23755;DHT22;12057;52.042;6.830;2023-05-07T09:00:05;17.80;99.90
23755;DHT22;12057;52.042;6.830;2023-05-07T09:05:07;18.30;99.90
23755;DHT22;12057;52.042;6.830;2023-05-07T09:10:09;18.50;99.90
23755;DHT22;12057;52.042;6.830;2023-05-07T09:15:13;18.70;99.90
23755;DHT22;12057;52.042;6.830;2023-05-07T09:20:14;19.00;99.90
23755;DHT22;12057;52.042;6.830;2023-05-07T09:25:14;19.10;99.90
23755;DHT22;12057;52.042;6.830;2023-05-07T09:30:15;19.30;99.90
23755;DHT22;12057;52.042;6.830;2023-05-07T09:35:17;19.60;99.90
23755;DHT22;12057;52.042;6.830;2023-05-07T09:40:26;19.90;99.90
23755;DHT22;12057;52.042;6.830;2023-05-07T09:45:28;19.90;99.90
23755;DHT22;12057;52.042;6.830;2023-05-07T09:50:35;19.70;99.90
23755;DHT22;12057;52.042;6.830;2023-05-07T09:55:37;19.90;99.90
23755;DHT22;12057;52.042;6.830;2023-05-07T10:00:39;20.30;99.90
23755;DHT22;12057;52.042;6.830;2023-05-07T10:05:42;20.60;99.90
23755;DHT22;12057;52.042;6.830;2023-05-07T10:10:45;20.90;99.90
23755;DHT22;12057;52.042;6.830;2023-05-07T10:15:47;21.10;99.90
23755;DHT22;12057;52.042;6.830;2023-05-07T10:20:51;21.10;99.90
23755;DHT22;12057;52.042;6.830;2023-05-07T10:25:54;21.30;99.90
23755;DHT22;12057;52.042;6.830;2023-05-07T10:36:37;21.20;99.90
23755;DHT22;12057;52.042;6.830;2023-05-07T10:41:39;21.10;99.90
23755;DHT22;12057;52.042;6.830;2023-05-07T10:46:41;20.90;99.90
23755;DHT22;12057;52.042;6.830;2023-05-07T10:51:42;21.10;99.90
23755;DHT22;12057;52.042;6.830;2023-05-07T10:56:43;21.50;99.90
23755;DHT22;12057;52.042;6.830;2023-05-07T11:01:55;21.20;99.90
23755;DHT22;12057;52.042;6.830;2023-05-07T11:12:09;21.50;99.90
23755;DHT22;12057;52.042;6.830;2023-05-07T11:17:10;21.60;99.90
23755;DHT22;12057;52.042;6.830;2023-05-07T11:22:36;21.60;99.90
23755;DHT22;12057;52.042;6.830;2023-05-07T11:27:37;21.70;99.90
23755;DHT22;12057;52.042;6.830;2023-05-07T11:32:39;21.50;99.90
23755;DHT22;12057;52.042;6.830;2023-05-07T11:37:40;21.70;99.90
23755;DHT22;12057;52.042;6.830;2023-05-07T11:42:41;22.00;99.90
23755;DHT22;12057;52.042;6.830;2023-05-07T11:47:45;22.10;99.90
23755;DHT22;12057;52.042;6.830;2023-05-07T11:52:52;22.20;99.90
23755;DHT22;12057;52.042;6.830;2023-05-07T11:57:53;21.90;99.90
23755;DHT22;12057;52.042;6.830;2023-05-07T12:02:54;21.80;99.90
23755;DHT22;12057;52.042;6.830;2023-05-07T12:07:58;21.80;99.90
23755;DHT22;12057;52.042;6.830;2023-05-07T12:12:58;21.90;99.90
23755;DHT22;12057;52.042;6.830;2023-05-07T12:17:59;21.90;99.90
23755;DHT22;12057;52.042;6.830;2023-05-07T12:23:01;22.00;99.90
23755;DHT22;12057;52.042;6.830;2023-05-07T12:28:03;22.20;99.90
23755;DHT22;12057;52.042;6.830;2023-05-07T12:33:05;22.70;99.90
23755;DHT22;12057;52.042;6.830;2023-05-07T12:38:11;22.90;99.90
23755;DHT22;12057;52.042;6.830;2023-05-07T12:43:25;23.40;99.90
23755;DHT22;12057;52.042;6.830;2023-05-07T12:48:26;23.20;99.90
23755;DHT22;12057;52.042;6.830;2023-05-07T12:53:30;22.90;99.90
23755;DHT22;12057;52.042;6.830;2023-05-07T12:58:34;23.10;99.90
23755;DHT22;12057;52.042;6.830;2023-05-07T13:03:37;23.10;99.90
23755;DHT22;12057;52.042;6.830;2023-05-07T13:08:40;23.10;99.90
23755;DHT22;12057;52.042;6.830;2023-05-07T13:13:43;23.10;99.90
23755;DHT22;12057;52.042;6.830;2023-05-07T13:18:44;23.00;99.90
23755;DHT22;12057;52.042;6.830;2023-05-07T13:23:46;22.60;99.90
23755;DHT22;12057;52.042;6.830;2023-05-07T13:28:46;22.70;99.90
23755;DHT22;12057;52.042;6.830;2023-05-07T13:33:47;22.60;99.90
23755;DHT22;12057;52.042;6.830;2023-05-07T13:38:48;22.30;99.90
23755;DHT22;12057;52.042;6.830;2023-05-07T13:43:49;22.40;99.90
23755;DHT22;12057;52.042;6.830;2023-05-07T13:48:49;22.10;99.90
23755;DHT22;12057;52.042;6.830;2023-05-07T13:53:51;22.40;99.90
23755;DHT22;12057;52.042;6.830;2023-05-07T13:58:53;21.90;99.90
23755;DHT22;12057;52.042;6.830;2023-05-07T14:03:53;21.90;99.90
23755;DHT22;12057;52.042;6.830;2023-05-07T14:08:54;21.70;99.90
23755;DHT22;12057;52.042;6.830;2023-05-07T14:13:55;21.60;99.90
23755;DHT22;12057;52.042;6.830;2023-05-07T14:18:57;21.30;99.90
23755;DHT22;12057;52.042;6.830;2023-05-07T14:23:58;21.30;99.90
23755;DHT22;12057;52.042;6.830;2023-05-07T14:28:58;21.20;99.90
23755;DHT22;12057;52.042;6.830;2023-05-07T14:33:59;21.20;99.90
23755;DHT22;12057;52.042;6.830;2023-05-07T14:39:01;21.10;99.90
23755;DHT22;12057;52.042;6.830;2023-05-07T14:44:01;21.20;99.90
23755;DHT22;12057;52.042;6.830;2023-05-07T14:49:04;21.10;99.90
23755;DHT22;12057;52.042;6.830;2023-05-07T14:54:06;20.90;99.90
23755;DHT22;12057;52.042;6.830;2023-05-07T14:59:07;20.90;99.90
23755;DHT22;12057;52.042;6.830;2023-05-07T15:04:08;20.70;99.90
23755;DHT22;12057;52.042;6.830;2023-05-07T15:09:08;20.60;99.90
23755;DHT22;12057;52.042;6.830;2023-05-07T15:14:09;20.70;99.90
23755;DHT22;12057;52.042;6.830;2023-05-07T15:19:10;20.60;99.90
23755;DHT22;12057;52.042;6.830;2023-05-07T15:24:11;20.50;99.90
23755;DHT22;12057;52.042;6.830;2023-05-07T15:29:12;20.50;99.90
23755;DHT22;12057;52.042;6.830;2023-05-07T15:34:13;20.50;99.90
23755;DHT22;12057;52.042;6.830;2023-05-07T15:39:15;20.60;99.90
23755;DHT22;12057;52.042;6.830;2023-05-07T15:44:16;20.60;99.90
23755;DHT22;12057;52.042;6.830;2023-05-07T15:49:17;20.60;99.90
23755;DHT22;12057;52.042;6.830;2023-05-07T15:54:18;20.50;99.90
23755;DHT22;12057;52.042;6.830;2023-05-07T15:59:20;20.40;99.90
23755;DHT22;12057;52.042;6.830;2023-05-07T16:04:21;20.20;99.90
23755;DHT22;12057;52.042;6.830;2023-05-07T16:09:21;20.10;99.90
23755;DHT22;12057;52.042;6.830;2023-05-07T16:14:24;20.10;99.90
23755;DHT22;12057;52.042;6.830;2023-05-07T16:19:25;20.10;99.90
23755;DHT22;12057;52.042;6.830;2023-05-07T16:24:26;20.10;99.90
23755;DHT22;12057;52.042;6.830;2023-05-07T16:29:26;20.00;99.90
23755;DHT22;12057;52.042;6.830;2023-05-07T16:34:27;19.80;99.90
23755;DHT22;12057;52.042;6.830;2023-05-07T16:39:28;19.90;99.90
23755;DHT22;12057;52.042;6.830;2023-05-07T16:44:29;20.00;99.90
23755;DHT22;12057;52.042;6.830;2023-05-07T16:49:30;19.80;99.90
23755;DHT22;12057;52.042;6.830;2023-05-07T16:54:31;19.80;99.90
23755;DHT22;12057;52.042;6.830;2023-05-07T16:59:31;20.00;99.90
23755;DHT22;12057;52.042;6.830;2023-05-07T17:04:33;19.90;99.90
23755;DHT22;12057;52.042;6.830;2023-05-07T17:09:33;19.80;99.90
23755;DHT22;12057;52.042;6.830;2023-05-07T17:14:34;19.90;99.90
23755;DHT22;12057;52.042;6.830;2023-05-07T17:19:37;19.90;99.90
23755;DHT22;12057;52.042;6.830;2023-05-07T17:24:38;19.90;99.90
23755;DHT22;12057;52.042;6.830;2023-05-07T17:29:39;19.80;99.90
23755;DHT22;12057;52.042;6.830;2023-05-07T17:34:40;19.90;99.90
23755;DHT22;12057;52.042;6.830;2023-05-07T17:39:41;20.00;99.90
23755;DHT22;12057;52.042;6.830;2023-05-07T17:44:42;19.90;99.90
23755;DHT22;12057;52.042;6.830;2023-05-07T17:49:42;19.80;99.90
23755;DHT22;12057;52.042;6.830;2023-05-07T17:54:43;19.60;99.90
23755;DHT22;12057;52.042;6.830;2023-05-07T17:59:44;19.60;99.90
23755;DHT22;12057;52.042;6.830;2023-05-07T18:04:45;19.40;99.90
23755;DHT22;12057;52.042;6.830;2023-05-07T18:09:46;19.30;99.90
23755;DHT22;12057;52.042;6.830;2023-05-07T18:14:47;19.20;99.90
23755;DHT22;12057;52.042;6.830;2023-05-07T18:19:47;19.00;99.90
23755;DHT22;12057;52.042;6.830;2023-05-07T18:24:48;19.00;99.90
23755;DHT22;12057;52.042;6.830;2023-05-07T18:29:49;19.00;99.90
23755;DHT22;12057;52.042;6.830;2023-05-07T18:34:50;18.80;99.90
23755;DHT22;12057;52.042;6.830;2023-05-07T18:39:51;18.70;99.90
23755;DHT22;12057;52.042;6.830;2023-05-07T18:44:51;18.50;99.90
23755;DHT22;12057;52.042;6.830;2023-05-07T18:49:52;18.40;99.90
23755;DHT22;12057;52.042;6.830;2023-05-07T18:54:53;18.30;99.90
23755;DHT22;12057;52.042;6.830;2023-05-07T18:59:55;18.20;99.90
23755;DHT22;12057;52.042;6.830;2023-05-07T19:04:55;18.10;99.90
23755;DHT22;12057;52.042;6.830;2023-05-07T19:09:57;17.90;99.90
23755;DHT22;12057;52.042;6.830;2023-05-07T19:15:00;17.80;99.90
23755;DHT22;12057;52.042;6.830;2023-05-07T19:20:02;17.80;99.90
23755;DHT22;12057;52.042;6.830;2023-05-07T19:25:04;17.70;99.90
23755;DHT22;12057;52.042;6.830;2023-05-07T19:30:07;17.70;99.90
23755;DHT22;12057;52.042;6.830;2023-05-07T19:35:08;17.60;99.90
23755;DHT22;12057;52.042;6.830;2023-05-07T19:40:09;17.50;99.90
23755;DHT22;12057;52.042;6.830;2023-05-07T19:45:10;17.40;99.90
23755;DHT22;12057;52.042;6.830;2023-05-07T19:50:11;17.20;99.90
23755;DHT22;12057;52.042;6.830;2023-05-07T19:55:12;17.20;99.90
23755;DHT22;12057;52.042;6.830;2023-05-07T20:00:13;17.20;99.90
23755;DHT22;12057;52.042;6.830;2023-05-07T20:05:14;17.10;99.90
23755;DHT22;12057;52.042;6.830;2023-05-07T20:10:15;17.10;99.90
23755;DHT22;12057;52.042;6.830;2023-05-07T20:15:15;17.10;99.90
23755;DHT22;12057;52.042;6.830;2023-05-07T20:20:16;17.10;99.90
23755;DHT22;12057;52.042;6.830;2023-05-07T20:25:17;17.00;99.90
23755;DHT22;12057;52.042;6.830;2023-05-07T20:30:18;16.90;99.90
23755;DHT22;12057;52.042;6.830;2023-05-07T20:35:19;16.80;99.90
23755;DHT22;12057;52.042;6.830;2023-05-07T20:40:20;16.80;99.90
23755;DHT22;12057;52.042;6.830;2023-05-07T20:45:21;16.80;99.90
23755;DHT22;12057;52.042;6.830;2023-05-07T20:50:25;16.80;99.90
23755;DHT22;12057;52.042;6.830;2023-05-07T20:55:29;16.70;99.90
23755;DHT22;12057;52.042;6.830;2023-05-07T21:00:30;16.70;99.90
23755;DHT22;12057;52.042;6.830;2023-05-07T21:05:31;16.60;99.90
23755;DHT22;12057;52.042;6.830;2023-05-07T21:10:32;16.60;99.90
23755;DHT22;12057;52.042;6.830;2023-05-07T21:15:35;16.60;99.90
23755;DHT22;12057;52.042;6.830;2023-05-07T21:20:37;16.60;99.90
23755;DHT22;12057;52.042;6.830;2023-05-07T21:25:37;16.50;99.90
23755;DHT22;12057;52.042;6.830;2023-05-07T21:30:40;16.40;99.90
23755;DHT22;12057;52.042;6.830;2023-05-07T21:35:41;16.40;99.90
23755;DHT22;12057;52.042;6.830;2023-05-07T21:40:41;16.30;99.90
23755;DHT22;12057;52.042;6.830;2023-05-07T21:45:42;16.40;99.90
23755;DHT22;12057;52.042;6.830;2023-05-07T21:50:43;16.30;99.90
23755;DHT22;12057;52.042;6.830;2023-05-07T21:55:44;16.20;99.90
23755;DHT22;12057;52.042;6.830;2023-05-07T22:00:45;16.20;99.90
23755;DHT22;12057;52.042;6.830;2023-05-07T22:05:46;16.10;99.90
23755;DHT22;12057;52.042;6.830;2023-05-07T22:10:46;16.10;99.90
23755;DHT22;12057;52.042;6.830;2023-05-07T22:15:47;16.10;99.90
23755;DHT22;12057;52.042;6.830;2023-05-07T22:20:50;16.10;99.90
23755;DHT22;12057;52.042;6.830;2023-05-07T22:25:51;16.00;99.90
23755;DHT22;12057;52.042;6.830;2023-05-07T22:30:52;16.00;99.90
23755;DHT22;12057;52.042;6.830;2023-05-07T22:35:53;16.10;99.90
23755;DHT22;12057;52.042;6.830;2023-05-07T22:40:54;16.00;99.90
23755;DHT22;12057;52.042;6.830;2023-05-07T22:45:59;16.00;99.90
23755;DHT22;12057;52.042;6.830;2023-05-07T22:51:03;16.00;99.90
23755;DHT22;12057;52.042;6.830;2023-05-07T22:56:05;16.00;99.90
23755;DHT22;12057;52.042;6.830;2023-05-07T23:01:13;16.00;99.90
23755;DHT22;12057;52.042;6.830;2023-05-07T23:06:14;15.90;99.90
23755;DHT22;12057;52.042;6.830;2023-05-07T23:11:15;15.70;99.90
23755;DHT22;12057;52.042;6.830;2023-05-07T23:16:16;15.60;99.90
23755;DHT22;12057;52.042;6.830;2023-05-07T23:21:17;15.70;99.90
23755;DHT22;12057;52.042;6.830;2023-05-07T23:26:17;15.70;99.90
23755;DHT22;12057;52.042;6.830;2023-05-07T23:31:18;15.60;99.90
23755;DHT22;12057;52.042;6.830;2023-05-07T23:36:19;15.60;99.90
23755;DHT22;12057;52.042;6.830;2023-05-07T23:41:20;15.60;99.90
23755;DHT22;12057;52.042;6.830;2023-05-07T23:46:21;15.60;99.90
23755;DHT22;12057;52.042;6.830;2023-05-07T23:51:21;15.60;99.90
23755;DHT22;12057;52.042;6.830;2023-05-07T23:56:22;15.60;99.90
